Valle Di Nervion — IBPC — position and weather

sailwx.info

Track history (hours):
 
Tides and Currents Weather Stations Pressure Air Temp Water Temp Dewpoint Dewpoint Depression Visibility Wind Speed Wind Dir Waves Ship Positions

Valle Di Nervion

Last reported at 2015-Sep-03 02:33 UTC. Time now 2015-Sep-03 02:38 UTC.
Position N 37°29' E 023°43'.

Length 176 m; draft 10.2 m.

Type: Ship (hazmat cat A). MMSI: 247109500.

Date/timePositionNaut miles runAvg speedWind from/ knotsBaromVisibWave heightAir tempDewpointWater temp
2015-Sep-03 02:33N 37°29' E 023°43'0 0.1
2015-Sep-03 01:33N 37°29' E 023°43'0 0.0
2015-Sep-03 00:33N 37°29' E 023°43'0 0.1
2015-Sep-02 23:33N 37°29' E 023°43'0 0.2
2015-Sep-02 22:34N 37°29' E 023°43'1 0.5
2015-Sep-02 21:33N 37°29' E 023°42'6 5.5
2015-Sep-02 20:33N 37°34' E 023°43'1 0.6
2015-Sep-02 19:33N 37°34' E 023°42'1 0.5
2015-Sep-02 18:33N 37°33' E 023°42'1 0.6
2015-Sep-02 17:33N 37°33' E 023°42'1 0.9
2015-Sep-02 16:33N 37°32' E 023°42'7 7.3
2015-Sep-02 15:33N 37°39' E 023°43'1212.4
2015-Sep-02 14:33N 37°51' E 023°36'8 8.1
2015-Sep-02 13:33N 37°58' E 023°33'4 1.8
2015-Sep-02 11:32N 38°02' E 023°31'0 0.0
2015-Sep-02 10:32N 38°02' E 023°31'0 0.0
2015-Sep-02 09:32N 38°02' E 023°31'0 0.1
2015-Sep-02 08:26N 38°02' E 023°31'0 0.0
2015-Sep-02 07:32N 38°02' E 023°31'1 0.6
2015-Sep-02 06:33N 38°02' E 023°31'0 0.0
2015-Sep-01 17:25N 38°02' E 023°31'0 0.0
2015-Sep-01 16:25N 38°02' E 023°31'0 0.0
2015-Sep-01 15:25N 38°02' E 023°31'0 0.0
2015-Sep-01 11:31N 38°02' E 023°31'0 0.0
2015-Sep-01 07:31N 38°02' E 023°31'0 0.0
2015-Sep-01 06:07N 38°02' E 023°31'0 0.0
2015-Sep-01 05:13N 38°02' E 023°31'0 0.0
2015-Sep-01 04:28N 38°02' E 023°31'0 0.0
2015-Sep-01 03:25N 38°02' E 023°31'0 0.0
2015-Sep-01 02:28N 38°02' E 023°31'0 0.0
2015-Sep-01 01:25N 38°02' E 023°31'0 0.0
2015-Sep-01 00:34N 38°02' E 023°31'0 0.0
2015-Aug-31 23:33N 38°02' E 023°31'0 0.0
2015-Aug-31 22:24N 38°02' E 023°31'0 0.0
2015-Aug-31 21:33N 38°02' E 023°31'0 0.0
2015-Aug-31 20:33N 38°02' E 023°31'0 0.0
2015-Aug-31 19:30N 38°02' E 023°31'0 0.0
2015-Aug-31 18:33N 38°02' E 023°31'0 0.0
2015-Aug-31 17:27N 38°02' E 023°31'0 0.0
2015-Aug-31 16:33N 38°02' E 023°31'3 3.0
2015-Aug-31 15:33N 37°60' E 023°33'6 6.3
2015-Aug-31 14:33N 37°54' E 023°37'7 7.3
2015-Aug-31 13:33N 37°48' E 023°41'1312.7
2015-Aug-31 12:33N 37°35' E 023°45'1313.2
2015-Aug-31 11:33N 37°22' E 023°42'1312.7
2015-Aug-31 10:33N 37°10' E 023°38'1312.4
2015-Aug-31 09:31N 37°00' E 023°27'38212.2
2015-Aug-30 02:06N 33°45' E 016°44'813.8
2015-Aug-30 01:31N 33°41' E 016°35'  
2015-Aug-27 12:33N 32°38' E 014°20'4 0.7
2015-Aug-27 07:15N 32°42' E 014°20'0 0.1
2015-Aug-27 05:24N 32°42' E 014°20'0 0.1
2015-Aug-27 04:15N 32°42' E 014°20'0 0.1
2015-Aug-27 03:30N 32°42' E 014°20'0 0.0
2015-Aug-26 20:15N 32°42' E 014°20'0 0.0
2015-Aug-26 19:33N 32°42' E 014°20'0 0.0
2015-Aug-26 18:32N 32°42' E 014°20'0 0.0
2015-Aug-26 17:32N 32°42' E 014°20'0 0.0
2015-Aug-26 15:32N 32°42' E 014°20'0 0.0
2015-Aug-26 14:32N 32°42' E 014°20'0 0.0
2015-Aug-26 13:32N 32°42' E 014°20'0 0.0
2015-Aug-26 12:32N 32°42' E 014°20'0 0.1
2015-Aug-26 11:32N 32°42' E 014°20'0 0.0
2015-Aug-26 07:26N 32°42' E 014°20'0 0.0
2015-Aug-26 06:29N 32°42' E 014°20'0 0.1
2015-Aug-26 05:14N 32°42' E 014°20'0 0.0
2015-Aug-26 04:29N 32°42' E 014°20'0 0.0
2015-Aug-26 01:29N 32°42' E 014°20'0 0.0
2015-Aug-25 21:17N 32°42' E 014°20'0 0.0
2015-Aug-25 20:05N 32°42' E 014°20'0 0.0
2015-Aug-25 19:26N 32°42' E 014°20'0 0.0
2015-Aug-25 18:29N 32°42' E 014°20'0 0.0
2015-Aug-25 17:32N 32°42' E 014°20'0 0.0
2015-Aug-25 16:26N 32°42' E 014°20'0 0.0
2015-Aug-25 15:23N 32°42' E 014°20'0 0.0
2015-Aug-25 14:26N 32°42' E 014°20'0 0.0
2015-Aug-25 13:20N 32°42' E 014°20'0 0.0
2015-Aug-25 12:32N 32°42' E 014°20'0 0.0
2015-Aug-25 11:32N 32°42' E 014°20'0 0.0
2015-Aug-25 10:32N 32°42' E 014°20'0 0.0
2015-Aug-25 09:28N 32°42' E 014°20'0 0.0
2015-Aug-25 08:31N 32°42' E 014°20'0 0.0
2015-Aug-25 07:07N 32°42' E 014°20'0 0.0
2015-Aug-25 06:31N 32°42' E 014°20'0 0.0
2015-Aug-25 05:10N 32°42' E 014°20'0 0.0
2015-Aug-25 03:25N 32°42' E 014°20'0 0.0
2015-Aug-25 02:31N 32°42' E 014°20'0 0.0
2015-Aug-25 01:31N 32°42' E 014°20'0 0.0
2015-Aug-25 00:31N 32°42' E 014°20'0 0.0
2015-Aug-24 23:10N 32°42' E 014°20'0 0.0
2015-Aug-24 22:31N 32°42' E 014°20'0 0.0
2015-Aug-24 21:28N 32°42' E 014°20'0 0.0
2015-Aug-24 20:07N 32°42' E 014°20'0 0.0
2015-Aug-24 19:31N 32°42' E 014°20'0 0.0
2015-Aug-24 18:31N 32°42' E 014°20'0 0.0
2015-Aug-24 17:28N 32°42' E 014°20'0 0.0
2015-Aug-24 16:31N 32°42' E 014°20'0 0.0
2015-Aug-24 15:19N 32°42' E 014°20'0 0.0
2015-Aug-24 14:31N 32°42' E 014°20'0 0.0
2015-Aug-24 13:31N 32°42' E 014°20'0 0.0
2015-Aug-24 12:31N 32°42' E 014°20'0 0.0
2015-Aug-24 11:31N 32°42' E 014°20'0 0.0
2015-Aug-24 10:28N 32°42' E 014°20'0 0.0
2015-Aug-24 09:31N 32°42' E 014°20'2 2.2
2015-Aug-24 08:32N 32°41' E 014°17'1 0.5
2015-Aug-24 07:33N 32°41' E 014°17'2 1.5
2015-Aug-24 06:18N 32°43' E 014°17'7 9.1
2015-Aug-24 05:34N 32°50' E 014°18'2412.1
2015-Aug-24 03:34N 33°12' E 014°06'1212.0
2015-Aug-24 02:33N 33°23' E 014°00'  
Track history (hours):
 
Tides and Currents Weather Stations Pressure Air Temp Water Temp Dewpoint Dewpoint Depression Visibility Wind Speed Wind Dir Waves Ship Positions

Valle Di Nervion

Last reported at 2015-Sep-03 02:33 UTC. Time now 2015-Sep-03 02:38 UTC.
Position N 37°29' E 023°43'.

Length 176 m; draft 10.2 m.

Type: Ship (hazmat cat A). MMSI: 247109500.

Date/timePositionNaut miles runAvg speedWind from/ knotsBaromVisibWave heightAir tempDewpointWater temp
2015-Sep-03 02:33N 37°29' E 023°43'0 0.1
2015-Sep-03 01:33N 37°29' E 023°43'0 0.0
2015-Sep-03 00:33N 37°29' E 023°43'0 0.1
2015-Sep-02 23:33N 37°29' E 023°43'0 0.2
2015-Sep-02 22:34N 37°29' E 023°43'1 0.5
2015-Sep-02 21:33N 37°29' E 023°42'6 5.5
2015-Sep-02 20:33N 37°34' E 023°43'1 0.6
2015-Sep-02 19:33N 37°34' E 023°42'1 0.5
2015-Sep-02 18:33N 37°33' E 023°42'1 0.6
2015-Sep-02 17:33N 37°33' E 023°42'1 0.9
2015-Sep-02 16:33N 37°32' E 023°42'7 7.3
2015-Sep-02 15:33N 37°39' E 023°43'1212.4
2015-Sep-02 14:33N 37°51' E 023°36'8 8.1
2015-Sep-02 13:33N 37°58' E 023°33'4 1.8
2015-Sep-02 11:32N 38°02' E 023°31'0 0.0
2015-Sep-02 10:32N 38°02' E 023°31'0 0.0
2015-Sep-02 09:32N 38°02' E 023°31'0 0.1
2015-Sep-02 08:26N 38°02' E 023°31'0 0.0
2015-Sep-02 07:32N 38°02' E 023°31'1 0.6
2015-Sep-02 06:33N 38°02' E 023°31'0 0.0
2015-Sep-01 17:25N 38°02' E 023°31'0 0.0
2015-Sep-01 16:25N 38°02' E 023°31'0 0.0
2015-Sep-01 15:25N 38°02' E 023°31'0 0.0
2015-Sep-01 11:31N 38°02' E 023°31'0 0.0
2015-Sep-01 07:31N 38°02' E 023°31'0 0.0
2015-Sep-01 06:07N 38°02' E 023°31'0 0.0
2015-Sep-01 05:13N 38°02' E 023°31'0 0.0
2015-Sep-01 04:28N 38°02' E 023°31'0 0.0
2015-Sep-01 03:25N 38°02' E 023°31'0 0.0
2015-Sep-01 02:28N 38°02' E 023°31'0 0.0
2015-Sep-01 01:25N 38°02' E 023°31'0 0.0
2015-Sep-01 00:34N 38°02' E 023°31'0 0.0
2015-Aug-31 23:33N 38°02' E 023°31'0 0.0
2015-Aug-31 22:24N 38°02' E 023°31'0 0.0
2015-Aug-31 21:33N 38°02' E 023°31'0 0.0
2015-Aug-31 20:33N 38°02' E 023°31'0 0.0
2015-Aug-31 19:30N 38°02' E 023°31'0 0.0
2015-Aug-31 18:33N 38°02' E 023°31'0 0.0
2015-Aug-31 17:27N 38°02' E 023°31'0 0.0
2015-Aug-31 16:33N 38°02' E 023°31'3 3.0
2015-Aug-31 15:33N 37°60' E 023°33'6 6.3
2015-Aug-31 14:33N 37°54' E 023°37'7 7.3
2015-Aug-31 13:33N 37°48' E 023°41'1312.7
2015-Aug-31 12:33N 37°35' E 023°45'1313.2
2015-Aug-31 11:33N 37°22' E 023°42'1312.7
2015-Aug-31 10:33N 37°10' E 023°38'1312.4
2015-Aug-31 09:31N 37°00' E 023°27'38212.2
2015-Aug-30 02:06N 33°45' E 016°44'813.8
2015-Aug-30 01:31N 33°41' E 016°35'  
2015-Aug-27 12:33N 32°38' E 014°20'4 0.7
2015-Aug-27 07:15N 32°42' E 014°20'0 0.1
2015-Aug-27 05:24N 32°42' E 014°20'0 0.1
2015-Aug-27 04:15N 32°42' E 014°20'0 0.1
2015-Aug-27 03:30N 32°42' E 014°20'0 0.0
2015-Aug-26 20:15N 32°42' E 014°20'0 0.0
2015-Aug-26 19:33N 32°42' E 014°20'0 0.0
2015-Aug-26 18:32N 32°42' E 014°20'0 0.0
2015-Aug-26 17:32N 32°42' E 014°20'0 0.0
2015-Aug-26 15:32N 32°42' E 014°20'0 0.0
2015-Aug-26 14:32N 32°42' E 014°20'0 0.0
2015-Aug-26 13:32N 32°42' E 014°20'0 0.0
2015-Aug-26 12:32N 32°42' E 014°20'0 0.1
2015-Aug-26 11:32N 32°42' E 014°20'0 0.0
2015-Aug-26 07:26N 32°42' E 014°20'0 0.0
2015-Aug-26 06:29N 32°42' E 014°20'0 0.1
2015-Aug-26 05:14N 32°42' E 014°20'0 0.0
2015-Aug-26 04:29N 32°42' E 014°20'0 0.0
2015-Aug-26 01:29N 32°42' E 014°20'0 0.0
2015-Aug-25 21:17N 32°42' E 014°20'0 0.0
2015-Aug-25 20:05N 32°42' E 014°20'0 0.0
2015-Aug-25 19:26N 32°42' E 014°20'0 0.0
2015-Aug-25 18:29N 32°42' E 014°20'0 0.0
2015-Aug-25 17:32N 32°42' E 014°20'0 0.0
2015-Aug-25 16:26N 32°42' E 014°20'0 0.0
2015-Aug-25 15:23N 32°42' E 014°20'0 0.0
2015-Aug-25 14:26N 32°42' E 014°20'0 0.0
2015-Aug-25 13:20N 32°42' E 014°20'0 0.0
2015-Aug-25 12:32N 32°42' E 014°20'0 0.0
2015-Aug-25 11:32N 32°42' E 014°20'0 0.0
2015-Aug-25 10:32N 32°42' E 014°20'0 0.0
2015-Aug-25 09:28N 32°42' E 014°20'0 0.0
2015-Aug-25 08:31N 32°42' E 014°20'0 0.0
2015-Aug-25 07:07N 32°42' E 014°20'0 0.0
2015-Aug-25 06:31N 32°42' E 014°20'0 0.0
2015-Aug-25 05:10N 32°42' E 014°20'0 0.0
2015-Aug-25 03:25N 32°42' E 014°20'0 0.0
2015-Aug-25 02:31N 32°42' E 014°20'0 0.0
2015-Aug-25 01:31N 32°42' E 014°20'0 0.0
2015-Aug-25 00:31N 32°42' E 014°20'0 0.0
2015-Aug-24 23:10N 32°42' E 014°20'0 0.0
2015-Aug-24 22:31N 32°42' E 014°20'0 0.0
2015-Aug-24 21:28N 32°42' E 014°20'0 0.0
2015-Aug-24 20:07N 32°42' E 014°20'0 0.0
2015-Aug-24 19:31N 32°42' E 014°20'0 0.0
2015-Aug-24 18:31N 32°42' E 014°20'0 0.0
2015-Aug-24 17:28N 32°42' E 014°20'0 0.0
2015-Aug-24 16:31N 32°42' E 014°20'0 0.0
2015-Aug-24 15:19N 32°42' E 014°20'0 0.0
2015-Aug-24 14:31N 32°42' E 014°20'0 0.0
2015-Aug-24 13:31N 32°42' E 014°20'0 0.0
2015-Aug-24 12:31N 32°42' E 014°20'0 0.0
2015-Aug-24 11:31N 32°42' E 014°20'0 0.0
2015-Aug-24 10:28N 32°42' E 014°20'0 0.0
2015-Aug-24 09:31N 32°42' E 014°20'2 2.2
2015-Aug-24 08:32N 32°41' E 014°17'1 0.5
2015-Aug-24 07:33N 32°41' E 014°17'2 1.5
2015-Aug-24 06:18N 32°43' E 014°17'7 9.1
2015-Aug-24 05:34N 32°50' E 014°18'2412.1
2015-Aug-24 03:34N 33°12' E 014°06'1212.0
2015-Aug-24 02:33N 33°23' E 014°00'  

Dump ship's entire track history